createdAt,value
2023-02-06T00:00:35.112Z,84.58
2023-02-06T00:01:41.132Z,84.45
2023-02-06T00:02:44.098Z,84.54
2023-02-06T00:03:46.990Z,85.23
2023-02-06T00:04:49.819Z,84.26
2023-02-06T00:05:57.014Z,83.71
2023-02-06T00:07:00.131Z,84.28
2023-02-06T00:08:03.388Z,84.07
2023-02-06T00:09:07.307Z,83.54
2023-02-06T00:10:10.206Z,83.52
2023-02-06T00:11:16.775Z,83.70
2023-02-06T00:12:19.970Z,84.00
2023-02-06T00:13:22.939Z,83.02
2023-02-06T00:14:25.787Z,83.75
2023-02-06T00:15:28.579Z,83.56
2023-02-06T00:16:33.783Z,83.40
2023-02-06T00:17:37.636Z,84.23
2023-02-06T00:18:40.579Z,84.50
2023-02-06T00:19:44.658Z,84.69
2023-02-06T00:20:47.458Z,84.93
2023-02-06T00:21:50.234Z,85.13
2023-02-06T00:22:53.314Z,85.04
2023-02-06T00:23:58.854Z,85.18
2023-02-06T00:25:01.714Z,84.52
2023-02-06T00:26:05.835Z,84.37
2023-02-06T00:27:08.804Z,84.52
2023-02-06T00:28:12.494Z,84.93
2023-02-06T00:29:15.314Z,84.31
2023-02-06T00:30:18.140Z,84.37
2023-02-06T00:31:22.578Z,84.56
2023-02-06T00:32:25.646Z,84.38
2023-02-06T00:33:28.704Z,84.24
2023-02-06T00:34:31.481Z,84.02
2023-02-06T00:35:35.490Z,84.00
2023-02-06T00:36:38.465Z,84.04
2023-02-06T00:37:41.218Z,83.55
2023-02-06T00:38:44.512Z,83.52
2023-02-06T00:39:47.488Z,84.04
2023-02-06T00:40:51.022Z,83.96
2023-02-06T00:41:55.792Z,83.86
2023-02-06T00:42:58.566Z,84.15
2023-02-06T00:44:01.649Z,84.07
2023-02-06T00:45:04.838Z,84.34
2023-02-06T00:46:07.697Z,84.41
2023-02-06T00:47:10.469Z,84.62
2023-02-06T00:48:16.682Z,84.10
2023-02-06T00:49:20.302Z,84.05
2023-02-06T00:50:23.142Z,84.10
2023-02-06T00:51:26.069Z,84.15
2023-02-06T00:52:28.841Z,84.35
2023-02-06T00:53:31.752Z,83.92
2023-02-06T00:54:34.936Z,83.92
2023-02-06T00:55:37.776Z,83.20
2023-02-06T00:56:40.582Z,83.27
2023-02-06T00:57:43.357Z,83.62
2023-02-06T00:58:46.392Z,83.84
2023-02-06T00:59:49.480Z,83.69
2023-02-06T01:00:53.012Z,83.92
2023-02-06T01:01:55.892Z,83.08
2023-02-06T01:02:58.927Z,83.78
2023-02-06T01:04:01.872Z,83.53
2023-02-06T01:05:06.375Z,83.53
2023-02-06T01:06:10.599Z,83.28
2023-02-06T01:07:13.440Z,83.36
2023-02-06T01:08:16.457Z,83.88
2023-02-06T01:09:19.242Z,83.53
2023-02-06T01:10:22.431Z,83.41
2023-02-06T01:11:26.096Z,83.86
2023-02-06T01:12:28.800Z,83.89
2023-02-06T01:13:31.639Z,83.62
2023-02-06T01:14:34.365Z,83.94
2023-02-06T01:15:37.715Z,84.18
2023-02-06T01:16:40.572Z,83.86
2023-02-06T01:17:43.317Z,83.70
2023-02-06T01:18:48.234Z,83.81
2023-02-06T01:19:51.049Z,83.93
2023-02-06T01:20:54.122Z,84.19
2023-02-06T01:21:56.944Z,84.50
2023-02-06T01:22:59.697Z,84.36
2023-02-06T01:24:03.352Z,84.61
2023-02-06T01:25:06.940Z,84.08
2023-02-06T01:26:13.302Z,84.28
2023-02-06T01:27:17.440Z,84.47
2023-02-06T01:28:20.567Z,84.80
2023-02-06T01:29:23.363Z,84.76
2023-02-06T01:30:26.897Z,85.18
2023-02-06T01:31:31.490Z,85.16
2023-02-06T01:32:42.216Z,85.11
2023-02-06T01:33:46.233Z,85.27
2023-02-06T01:34:48.992Z,85.05
2023-02-06T01:35:56.644Z,85.02
2023-02-06T01:36:59.710Z,84.80
2023-02-06T01:38:02.475Z,84.24
2023-02-06T01:39:06.582Z,84.32
2023-02-06T01:40:14.228Z,84.47
2023-02-06T01:41:19.209Z,84.34
2023-02-06T01:42:22.281Z,84.57
2023-02-06T01:43:28.120Z,84.60
2023-02-06T01:44:32.913Z,84.59
2023-02-06T01:45:42.262Z,84.38
2023-02-06T01:46:47.577Z,84.18
2023-02-06T01:47:53.501Z,84.44
2023-02-06T01:49:00.180Z,84.46
2023-02-06T01:50:03.232Z,84.45
2023-02-06T01:51:13.367Z,83.96
2023-02-06T01:52:24.509Z,83.82
2023-02-06T01:53:29.940Z,83.31
2023-02-06T01:54:32.947Z,83.50
2023-02-06T01:55:38.236Z,83.29
2023-02-06T01:56:48.117Z,83.14
2023-02-06T01:57:52.346Z,83.50
2023-02-06T01:59:00.825Z,83.48
2023-02-06T02:00:09.481Z,83.54
2023-02-06T02:01:14.595Z,83.22
2023-02-06T02:02:18.321Z,83.36
2023-02-06T02:03:22.584Z,82.85
2023-02-06T02:04:28.436Z,82.68
2023-02-06T02:05:33.379Z,83.30
2023-02-06T02:06:36.720Z,83.14
2023-02-06T02:07:51.479Z,82.74
2023-02-06T02:08:58.321Z,83.16
2023-02-06T02:10:03.184Z,83.35
2023-02-06T02:11:08.141Z,83.31
2023-02-06T02:12:13.781Z,83.06
2023-02-06T02:13:17.433Z,82.47
2023-02-06T02:14:20.244Z,82.70
2023-02-06T02:15:54.111Z,82.49
2023-02-06T02:17:35.134Z,82.25
2023-02-06T02:18:38.050Z,82.62
2023-02-06T02:19:43.937Z,82.61
2023-02-06T02:21:26.114Z,82.70
2023-02-06T02:22:35.040Z,82.99
2023-02-06T02:23:56.211Z,82.74
2023-02-06T02:25:21.898Z,82.65
2023-02-06T02:26:46.634Z,82.83
2023-02-06T02:27:55.741Z,82.77
2023-02-06T02:29:17.507Z,82.73
2023-02-06T02:30:38.627Z,82.90
2023-02-06T02:32:07.883Z,83.18
2023-02-06T02:33:10.550Z,83.31
2023-02-06T02:34:31.462Z,83.49
2023-02-06T02:35:54.947Z,83.68
2023-02-06T02:37:16.376Z,83.62
2023-02-06T02:38:42.100Z,83.83
2023-02-06T02:40:28.575Z,83.96
2023-02-06T02:41:41.409Z,84.41
2023-02-06T02:43:13.192Z,84.41
2023-02-06T02:44:32.957Z,84.35
2023-02-06T02:45:42.925Z,84.48
2023-02-06T02:46:50.781Z,84.80
2023-02-06T02:48:49.978Z,84.91
2023-02-06T02:49:54.844Z,85.13
2023-02-06T02:51:00.174Z,85.08
2023-02-06T02:52:04.589Z,85.36
2023-02-06T02:53:08.915Z,85.63
2023-02-06T02:54:11.955Z,85.96
2023-02-06T02:55:17.592Z,86.01
2023-02-06T02:56:23.894Z,86.12
2023-02-06T02:57:32.603Z,86.19
2023-02-06T02:58:36.405Z,85.90
2023-02-06T02:59:44.914Z,85.73
2023-02-06T03:01:01.341Z,85.80
2023-02-06T03:02:13.012Z,85.85
2023-02-06T03:03:22.396Z,85.83
2023-02-06T03:04:33.357Z,85.50
2023-02-06T03:05:46.232Z,85.43
2023-02-06T03:07:04.659Z,85.32
2023-02-06T03:08:36.727Z,85.53
2023-02-06T03:10:19.177Z,85.58
2023-02-06T03:11:22.533Z,85.37
2023-02-06T03:12:39.150Z,85.33
2023-02-06T03:14:10.388Z,85.40
2023-02-06T03:15:26.070Z,85.60
2023-02-06T03:16:50.771Z,84.94
2023-02-06T03:18:11.538Z,85.32
2023-02-06T03:19:19.818Z,85.62
2023-02-06T03:20:23.895Z,85.62
2023-02-06T03:21:28.582Z,85.66
2023-02-06T03:22:34.729Z,85.44
2023-02-06T03:23:39.594Z,85.58
2023-02-06T03:24:42.635Z,85.53
2023-02-06T03:25:47.987Z,84.83
2023-02-06T03:26:56.824Z,84.91
2023-02-06T03:28:01.798Z,85.16
2023-02-06T03:29:08.630Z,85.15
2023-02-06T03:30:14.206Z,85.23
2023-02-06T03:31:28.039Z,84.65
2023-02-06T03:32:34.308Z,84.82
2023-02-06T03:33:44.818Z,84.73
2023-02-06T03:35:13.699Z,84.65
2023-02-06T03:36:17.250Z,84.09
2023-02-06T03:37:22.858Z,83.92
2023-02-06T03:38:27.844Z,84.02
2023-02-06T03:39:31.025Z,83.67
2023-02-06T03:40:35.252Z,83.78
2023-02-06T03:41:40.692Z,83.30
2023-02-06T03:42:53.625Z,83.49
2023-02-06T03:43:58.392Z,83.90
2023-02-06T03:45:06.935Z,83.86
2023-02-06T03:46:12.683Z,83.78
2023-02-06T03:47:42.705Z,83.66
2023-02-06T03:48:50.808Z,83.52
2023-02-06T03:49:57.552Z,83.76
2023-02-06T03:51:04.808Z,83.57
2023-02-06T03:52:15.030Z,83.66
2023-02-06T03:53:19.264Z,83.79
2023-02-06T03:54:24.387Z,83.75
2023-02-06T03:55:27.097Z,83.77
2023-02-06T03:56:35.519Z,83.97
2023-02-06T03:57:39.335Z,84.31
2023-02-06T03:58:42.881Z,84.53
2023-02-06T03:59:47.250Z,85.16
2023-02-06T04:00:50.545Z,85.58
2023-02-06T04:01:57.095Z,86.29
2023-02-06T04:03:00.790Z,86.61
2023-02-06T04:04:04.501Z,87.44
2023-02-06T04:05:07.850Z,87.95
2023-02-06T04:06:10.889Z,88.25
2023-02-06T04:07:27.418Z,88.58
2023-02-06T04:08:30.480Z,88.67
2023-02-06T04:09:33.292Z,89.14
2023-02-06T04:10:35.998Z,89.34
2023-02-06T04:11:39.031Z,89.27
2023-02-06T04:12:42.046Z,89.27
2023-02-06T04:13:44.741Z,89.48
2023-02-06T04:14:47.868Z,89.52
2023-02-06T04:15:51.522Z,89.51
2023-02-06T04:16:54.320Z,89.42
2023-02-06T04:18:01.056Z,89.27
2023-02-06T04:19:04.626Z,89.31
2023-02-06T04:20:07.858Z,89.36
2023-02-06T04:21:14.308Z,89.33
2023-02-06T04:22:17.063Z,89.33
2023-02-06T04:23:20.768Z,89.58
2023-02-06T04:24:23.700Z,89.52
2023-02-06T04:25:26.751Z,89.40
2023-02-06T04:26:29.601Z,89.25
2023-02-06T04:27:32.431Z,89.42
2023-02-06T04:28:36.020Z,89.37
2023-02-06T04:29:38.975Z,89.32
2023-02-06T04:30:41.863Z,89.07
2023-02-06T04:31:44.698Z,89.14
2023-02-06T04:32:47.453Z,89.13
2023-02-06T04:33:51.276Z,89.39
2023-02-06T04:34:54.527Z,89.55
2023-02-06T04:35:57.199Z,89.62
2023-02-06T04:37:01.104Z,89.79
2023-02-06T04:38:03.850Z,89.67
2023-02-06T04:39:07.736Z,89.55
2023-02-06T04:40:11.353Z,89.45
2023-02-06T04:41:19.455Z,89.72
2023-02-06T04:42:23.105Z,89.73
2023-02-06T04:43:25.724Z,89.80
2023-02-06T04:44:28.705Z,89.81
2023-02-06T04:45:31.407Z,89.95
2023-02-06T04:46:34.119Z,89.99
2023-02-06T04:47:36.833Z,90.14
2023-02-06T04:48:40.858Z,90.28
2023-02-06T04:49:43.839Z,90.25
2023-02-06T04:50:46.664Z,90.26
2023-02-06T04:51:49.486Z,90.39
2023-02-06T04:52:52.165Z,90.34
2023-02-06T04:53:54.942Z,90.07
2023-02-06T04:54:57.964Z,90.03
2023-02-06T04:56:11.492Z,90.14
2023-02-06T04:57:14.386Z,90.24
2023-02-06T04:58:17.006Z,90.30
2023-02-06T04:59:19.732Z,90.39
2023-02-06T05:00:23.290Z,90.52
2023-02-06T05:01:26.140Z,90.22
2023-02-06T05:02:30.106Z,90.30
2023-02-06T05:03:33.382Z,90.29
2023-02-06T05:04:39.038Z,90.46
2023-02-06T05:05:42.050Z,90.44
2023-02-06T05:06:45.203Z,90.36
2023-02-06T05:07:48.415Z,90.48
2023-02-06T05:08:51.459Z,90.61
2023-02-06T05:09:54.247Z,90.64
2023-02-06T05:10:57.671Z,90.32
2023-02-06T05:12:01.091Z,90.42
2023-02-06T05:13:03.815Z,90.58
2023-02-06T05:14:06.635Z,90.59
2023-02-06T05:15:09.948Z,90.68
2023-02-06T05:16:15.520Z,91.02
2023-02-06T05:17:18.193Z,91.32
2023-02-06T05:18:20.961Z,91.05
2023-02-06T05:19:23.642Z,91.28
2023-02-06T05:20:26.782Z,91.35
2023-02-06T05:21:30.100Z,91.55
2023-02-06T05:22:32.747Z,91.43
2023-02-06T05:23:35.512Z,91.33
2023-02-06T05:24:38.500Z,91.41
2023-02-06T05:25:42.321Z,91.47
2023-02-06T05:26:46.632Z,91.48
2023-02-06T05:27:50.103Z,91.36
2023-02-06T05:28:55.701Z,91.36
2023-02-06T05:29:58.542Z,91.48
2023-02-06T05:31:03.744Z,91.39
2023-02-06T05:32:07.115Z,91.49
2023-02-06T05:33:09.875Z,91.55
2023-02-06T05:34:12.733Z,91.57
2023-02-06T05:35:15.534Z,91.37
2023-02-06T05:36:19.441Z,91.30
2023-02-06T05:37:22.461Z,91.28
2023-02-06T05:38:25.212Z,91.30
2023-02-06T05:39:28.160Z,91.44
2023-02-06T05:40:30.870Z,91.59
2023-02-06T05:41:33.604Z,91.67
2023-02-06T05:42:36.893Z,91.69
2023-02-06T05:43:39.697Z,91.96
2023-02-06T05:44:42.437Z,92.01
2023-02-06T05:45:45.269Z,92.05
2023-02-06T05:46:48.574Z,92.14
2023-02-06T05:47:52.345Z,91.97
2023-02-06T05:48:55.342Z,91.75
2023-02-06T05:49:58.054Z,91.78
2023-02-06T05:51:01.444Z,91.99
2023-02-06T05:52:04.856Z,91.87
2023-02-06T05:53:07.977Z,91.80
2023-02-06T05:54:11.118Z,91.63
2023-02-06T05:55:17.212Z,91.45
2023-02-06T05:56:20.802Z,91.27
2023-02-06T05:57:23.700Z,91.18
2023-02-06T05:58:26.934Z,91.05
2023-02-06T05:59:29.680Z,90.98
2023-02-06T06:00:32.796Z,90.85
2023-02-06T06:01:36.427Z,90.66
2023-02-06T06:02:39.635Z,90.65
2023-02-06T06:03:42.422Z,90.54
2023-02-06T06:04:45.152Z,90.46
2023-02-06T06:05:48.361Z,90.51
2023-02-06T06:06:51.875Z,90.56
2023-02-06T06:07:54.696Z,90.53
2023-02-06T06:09:01.308Z,90.43
2023-02-06T06:10:04.540Z,90.33
2023-02-06T06:11:10.279Z,90.25
2023-02-06T06:12:13.368Z,90.14
2023-02-06T06:13:16.022Z,90.11
2023-02-06T06:14:18.994Z,90.30
2023-02-06T06:15:22.667Z,90.01
2023-02-06T06:16:26.336Z,90.25
2023-02-06T06:17:29.365Z,89.75
2023-02-06T06:18:32.756Z,89.48
2023-02-06T06:19:35.415Z,89.37
2023-02-06T06:20:38.215Z,89.49
2023-02-06T06:21:41.207Z,89.49
2023-02-06T06:22:44.227Z,89.28
2023-02-06T06:23:46.946Z,89.15
2023-02-06T06:24:49.597Z,88.94
2023-02-06T06:25:52.272Z,89.08
2023-02-06T06:26:54.981Z,89.09
2023-02-06T06:27:58.059Z,89.23
2023-02-06T06:29:00.862Z,89.29
2023-02-06T06:30:04.101Z,89.10
2023-02-06T06:31:11.835Z,88.94
2023-02-06T06:32:14.711Z,88.88
2023-02-06T06:33:17.937Z,88.49
2023-02-06T06:34:21.129Z,88.25
2023-02-06T06:35:24.049Z,88.03
2023-02-06T06:36:26.782Z,88.21
2023-02-06T06:37:29.478Z,87.88
2023-02-06T06:38:33.001Z,87.74
2023-02-06T06:39:35.747Z,87.49
2023-02-06T06:40:39.934Z,87.00
2023-02-06T06:41:42.612Z,86.90
2023-02-06T06:42:45.278Z,86.39
2023-02-06T06:43:50.091Z,86.24
2023-02-06T06:44:54.140Z,85.88
2023-02-06T06:45:57.048Z,85.43
2023-02-06T06:46:59.756Z,84.86
2023-02-06T06:48:02.500Z,84.62
2023-02-06T06:49:05.579Z,84.40
2023-02-06T06:50:08.799Z,84.09
2023-02-06T06:51:11.548Z,84.03
2023-02-06T06:52:24.355Z,84.43
2023-02-06T06:53:28.126Z,84.54
2023-02-06T06:54:31.658Z,83.74
2023-02-06T06:55:34.988Z,83.33
2023-02-06T06:56:37.803Z,83.11
2023-02-06T06:57:40.504Z,82.87
2023-02-06T06:58:44.671Z,82.60
2023-02-06T06:59:48.601Z,82.25
2023-02-06T07:00:53.773Z,81.18
2023-02-06T07:01:56.508Z,81.29
2023-02-06T07:02:59.486Z,80.51
2023-02-06T07:04:02.490Z,80.07
2023-02-06T07:05:05.751Z,78.64
2023-02-06T07:06:08.700Z,78.83
2023-02-06T07:07:11.461Z,78.61
2023-02-06T07:08:15.158Z,78.34
2023-02-06T07:09:18.037Z,77.52
2023-02-06T07:10:22.106Z,77.24
2023-02-06T07:11:26.218Z,77.11
2023-02-06T07:12:29.075Z,76.81
2023-02-06T07:13:31.945Z,77.06
2023-02-06T07:14:34.691Z,76.74
2023-02-06T07:15:37.956Z,76.75
2023-02-06T07:16:40.957Z,76.49
2023-02-06T07:17:43.794Z,75.86
2023-02-06T07:18:46.586Z,76.09
2023-02-06T07:19:51.623Z,75.81
2023-02-06T07:20:54.650Z,75.92
2023-02-06T07:21:57.353Z,75.74
2023-02-06T07:23:01.763Z,75.85
2023-02-06T07:24:05.791Z,75.44
2023-02-06T07:25:08.618Z,75.49
2023-02-06T07:26:12.373Z,74.93
2023-02-06T07:27:15.080Z,74.91
2023-02-06T07:28:18.206Z,74.77
2023-02-06T07:29:21.212Z,74.76
2023-02-06T07:30:24.431Z,74.67
2023-02-06T07:31:28.221Z,74.65
2023-02-06T07:32:31.026Z,74.67
2023-02-06T07:33:35.209Z,73.74
2023-02-06T07:34:37.992Z,73.56
2023-02-06T07:35:42.042Z,73.85
2023-02-06T07:36:45.109Z,73.46
2023-02-06T07:37:47.957Z,73.58
2023-02-06T07:38:52.535Z,73.66
2023-02-06T07:39:55.310Z,73.32
2023-02-06T07:41:02.647Z,72.75
2023-02-06T07:42:05.928Z,73.40
2023-02-06T07:43:09.069Z,73.41
2023-02-06T07:44:12.425Z,72.93
2023-02-06T07:45:15.377Z,72.72
2023-02-06T07:46:18.372Z,73.57
2023-02-06T07:47:21.796Z,73.17
2023-02-06T07:48:24.479Z,72.55
2023-02-06T07:49:27.320Z,72.99
2023-02-06T07:50:30.036Z,72.72
2023-02-06T07:51:32.744Z,71.69
2023-02-06T07:52:36.000Z,72.63
2023-02-06T07:53:39.102Z,72.37
2023-02-06T07:54:41.956Z,71.76
2023-02-06T07:55:44.818Z,71.37
2023-02-06T07:56:47.632Z,72.63
2023-02-06T07:57:51.692Z,72.81
2023-02-06T07:58:58.009Z,72.22
2023-02-06T08:00:01.100Z,71.74
2023-02-06T08:01:05.555Z,72.76
2023-02-06T08:02:12.111Z,72.23
2023-02-06T08:03:14.869Z,71.20
2023-02-06T08:04:18.519Z,71.24
2023-02-06T08:05:21.354Z,70.60
2023-02-06T08:06:25.456Z,71.08
2023-02-06T08:07:28.484Z,70.49
2023-02-06T08:08:31.192Z,70.67
2023-02-06T08:09:33.991Z,70.75
2023-02-06T08:10:38.762Z,71.44
2023-02-06T08:11:41.718Z,71.94
2023-02-06T08:12:45.172Z,71.47
2023-02-06T08:13:48.675Z,70.77
2023-02-06T08:14:51.586Z,70.40
2023-02-06T08:15:54.455Z,71.37
2023-02-06T08:16:57.250Z,70.78
2023-02-06T08:18:00.404Z,70.39
2023-02-06T08:19:03.197Z,70.55
2023-02-06T08:20:06.131Z,70.56
2023-02-06T08:21:22.799Z,69.99
2023-02-06T08:22:25.656Z,70.47
2023-02-06T08:23:28.889Z,71.17
2023-02-06T08:24:32.015Z,71.66
2023-02-06T08:25:35.179Z,70.90
2023-02-06T08:26:38.483Z,70.79
2023-02-06T08:27:41.445Z,70.62
2023-02-06T08:28:46.889Z,70.98
2023-02-06T08:29:51.778Z,70.81
2023-02-06T08:30:54.922Z,69.93
2023-02-06T08:31:57.694Z,70.39
2023-02-06T08:33:00.434Z,70.53
2023-02-06T08:34:04.186Z,70.52
2023-02-06T08:35:07.110Z,69.66
2023-02-06T08:36:10.975Z,68.89
2023-02-06T08:37:13.945Z,69.15
2023-02-06T08:38:16.942Z,67.99
2023-02-06T08:39:20.022Z,68.94
2023-02-06T08:40:22.723Z,68.49
2023-02-06T08:41:28.510Z,67.44
2023-02-06T08:42:31.248Z,68.69
2023-02-06T08:43:33.997Z,68.53
2023-02-06T08:44:37.050Z,70.05
2023-02-06T08:45:39.754Z,69.44
2023-02-06T08:46:44.123Z,68.27
2023-02-06T08:47:46.922Z,67.70
2023-02-06T08:48:58.881Z,67.45
2023-02-06T08:50:03.515Z,66.43
2023-02-06T08:51:08.627Z,67.98
2023-02-06T08:52:11.643Z,69.56
2023-02-06T08:53:14.407Z,69.37
2023-02-06T08:54:19.955Z,69.58
2023-02-06T08:55:25.291Z,69.50
2023-02-06T08:56:29.455Z,70.15
2023-02-06T08:57:32.128Z,70.12
2023-02-06T08:58:35.504Z,70.61
2023-02-06T08:59:38.454Z,69.62
2023-02-06T09:00:41.722Z,69.63
2023-02-06T09:01:45.752Z,70.14
2023-02-06T09:02:48.697Z,68.50
2023-02-06T09:03:55.865Z,68.46
2023-02-06T09:04:58.690Z,68.37
2023-02-06T09:06:09.831Z,67.67
2023-02-06T09:07:12.918Z,69.05
2023-02-06T09:08:16.618Z,68.75
2023-02-06T09:09:19.826Z,69.32
2023-02-06T09:10:27.742Z,68.67
2023-02-06T09:11:31.625Z,68.67
2023-02-06T09:12:34.361Z,68.00
2023-02-06T09:13:38.407Z,68.00
2023-02-06T09:14:41.126Z,66.92
2023-02-06T09:15:51.721Z,66.49
2023-02-06T09:16:57.121Z,66.58
2023-02-06T09:17:59.867Z,66.62
2023-02-06T09:19:05.056Z,67.11
2023-02-06T09:20:08.693Z,66.99
2023-02-06T09:21:13.206Z,66.91
2023-02-06T09:22:16.267Z,67.65
2023-02-06T09:23:19.573Z,67.10
2023-02-06T09:24:22.293Z,68.49
2023-02-06T09:25:25.544Z,68.86
2023-02-06T09:26:40.613Z,69.25
2023-02-06T09:27:48.179Z,69.60
2023-02-06T09:28:59.783Z,68.77
2023-02-06T09:30:03.550Z,68.83
2023-02-06T09:31:10.973Z,68.38
2023-02-06T09:32:13.740Z,67.62
2023-02-06T09:33:16.710Z,67.15
2023-02-06T09:34:19.760Z,66.46
2023-02-06T09:35:22.468Z,66.41
2023-02-06T09:36:25.166Z,66.32
2023-02-06T09:37:27.817Z,65.96
2023-02-06T09:38:31.523Z,66.38
2023-02-06T09:39:37.284Z,64.94
2023-02-06T09:40:40.076Z,64.31
2023-02-06T09:41:46.474Z,64.29
2023-02-06T09:42:49.243Z,64.36
2023-02-06T09:44:18.111Z,64.51
2023-02-06T09:45:24.602Z,64.59
2023-02-06T09:46:32.025Z,65.18
2023-02-06T09:47:38.190Z,66.04
2023-02-06T09:48:42.996Z,65.84
2023-02-06T09:50:10.515Z,65.70
2023-02-06T09:51:20.080Z,66.81
2023-02-06T09:52:54.229Z,66.66
2023-02-06T09:53:59.969Z,65.65
2023-02-06T09:55:33.539Z,64.90
2023-02-06T09:57:02.541Z,67.03
2023-02-06T09:58:30.674Z,65.99
2023-02-06T09:59:47.698Z,66.35
2023-02-06T10:01:03.123Z,66.43
2023-02-06T10:02:24.996Z,65.06
2023-02-06T10:03:34.392Z,65.26
2023-02-06T10:04:43.117Z,63.64
2023-02-06T10:06:07.599Z,63.50
2023-02-06T10:07:28.748Z,62.85
2023-02-06T10:09:00.292Z,63.25
2023-02-06T10:10:10.088Z,64.71
2023-02-06T10:11:26.355Z,63.04
2023-02-06T10:12:36.100Z,63.43
2023-02-06T10:13:49.873Z,63.34
2023-02-06T10:15:02.684Z,63.13
2023-02-06T10:16:13.866Z,62.37
2023-02-06T10:17:33.935Z,63.53
2023-02-06T10:18:46.272Z,63.34
2023-02-06T10:20:01.018Z,63.98
2023-02-06T10:21:17.822Z,63.93
2023-02-06T10:22:30.445Z,63.04
2023-02-06T10:24:02.434Z,62.73
2023-02-06T10:25:11.529Z,64.13
2023-02-06T10:26:19.689Z,64.46
2023-02-06T10:27:22.495Z,65.52
2023-02-06T10:28:28.543Z,64.26
2023-02-06T10:29:34.337Z,63.21
2023-02-06T10:31:03.175Z,62.98
2023-02-06T10:32:13.571Z,61.81
2023-02-06T10:33:38.563Z,61.55
2023-02-06T10:35:23.387Z,61.88
2023-02-06T10:37:01.404Z,61.45
2023-02-06T10:38:49.144Z,60.65
2023-02-06T10:40:13.071Z,60.28
2023-02-06T10:41:32.763Z,60.04
2023-02-06T10:42:48.312Z,59.97
2023-02-06T10:44:00.686Z,60.31
2023-02-06T10:45:28.002Z,60.99
2023-02-06T10:46:48.551Z,61.52
2023-02-06T10:47:57.611Z,61.07
2023-02-06T10:49:06.780Z,62.01
2023-02-06T11:02:47.485Z,59.24
2023-02-06T11:03:56.451Z,60.61
2023-02-06T11:05:09.408Z,61.18
2023-02-06T11:06:17.814Z,61.03
2023-02-06T11:07:31.924Z,60.53
2023-02-06T11:08:47.156Z,60.24
2023-02-06T11:09:50.211Z,60.34
2023-02-06T11:10:54.024Z,60.73
2023-02-06T11:11:58.523Z,61.16
2023-02-06T11:13:06.865Z,60.65
2023-02-06T11:14:20.850Z,63.36
2023-02-06T11:15:46.441Z,61.97
2023-02-06T11:16:49.461Z,61.79
2023-02-06T11:17:53.745Z,61.32
2023-02-06T11:19:01.131Z,62.33
2023-02-06T11:20:21.899Z,61.95
2023-02-06T11:21:51.778Z,61.99
2023-02-06T11:22:54.798Z,61.27
2023-02-06T11:24:12.655Z,62.10
2023-02-06T11:25:31.473Z,62.36
2023-02-06T11:26:40.125Z,61.90
2023-02-06T11:27:44.383Z,62.86
2023-02-06T11:29:06.716Z,61.96
2023-02-06T11:30:29.596Z,61.63
2023-02-06T11:31:57.091Z,62.57
2023-02-06T11:33:06.074Z,62.51
2023-02-06T11:34:41.457Z,62.94
2023-02-06T11:35:59.639Z,63.41
2023-02-06T11:37:27.154Z,63.59
2023-02-06T11:38:31.596Z,63.07
2023-02-06T11:39:38.086Z,61.50
2023-02-06T11:40:41.295Z,62.00
2023-02-06T11:42:07.717Z,61.02
2023-02-06T11:43:43.176Z,61.90
2023-02-06T11:44:50.744Z,61.57
2023-02-06T11:46:18.145Z,61.15
2023-02-06T11:47:33.669Z,61.25
2023-02-06T11:48:38.648Z,60.30
2023-02-06T11:49:41.432Z,59.66
2023-02-06T11:50:54.306Z,60.79
2023-02-06T11:52:03.847Z,61.37
2023-02-06T11:53:18.471Z,60.40
2023-02-06T11:54:27.333Z,61.31
2023-02-06T11:55:34.297Z,61.67
2023-02-06T11:56:37.583Z,60.63
2023-02-06T11:57:40.444Z,60.03
2023-02-06T11:58:44.948Z,60.45
2023-02-06T11:59:51.819Z,60.94
2023-02-06T12:00:58.487Z,60.39
2023-02-06T12:02:07.048Z,60.62
2023-02-06T12:03:37.810Z,60.86
2023-02-06T12:04:41.513Z,60.06
2023-02-06T12:05:44.302Z,61.99
2023-02-06T12:06:47.096Z,62.22
2023-02-06T12:08:06.848Z,62.18
2023-02-06T12:09:12.706Z,61.50
2023-02-06T12:10:18.125Z,61.97
2023-02-06T12:11:26.061Z,62.84
2023-02-06T12:12:36.487Z,61.50
2023-02-06T12:13:45.466Z,61.51
2023-02-06T12:15:01.713Z,61.87
2023-02-06T12:16:09.243Z,61.26
2023-02-06T12:17:40.047Z,61.41
2023-02-06T12:18:48.432Z,61.62
2023-02-06T12:19:59.377Z,60.86
2023-02-06T12:21:13.379Z,61.09
2023-02-06T12:22:23.870Z,61.29
2023-02-06T12:23:29.163Z,61.10
2023-02-06T12:24:38.104Z,60.88
2023-02-06T12:25:43.323Z,60.43
2023-02-06T12:26:47.806Z,60.62
2023-02-06T12:27:53.327Z,60.74
2023-02-06T12:29:02.379Z,60.96
2023-02-06T12:30:27.337Z,60.53
2023-02-06T12:31:47.665Z,60.58
2023-02-06T12:33:02.093Z,61.13
2023-02-06T12:34:19.838Z,60.71
2023-02-06T12:35:28.515Z,61.20
2023-02-06T12:36:35.712Z,60.75
2023-02-06T12:37:44.254Z,60.98
2023-02-06T12:39:01.978Z,60.54
2023-02-06T12:40:05.135Z,60.65
2023-02-06T12:41:29.971Z,60.35
2023-02-06T12:42:39.603Z,59.99
2023-02-06T12:43:46.144Z,60.40
2023-02-06T12:44:55.342Z,60.44
2023-02-06T12:46:17.404Z,60.47
2023-02-06T12:47:42.185Z,60.81
2023-02-06T12:48:53.870Z,61.60
2023-02-06T12:50:23.390Z,60.94
2023-02-06T12:51:58.245Z,62.04
2023-02-06T12:53:39.793Z,62.44
2023-02-06T12:54:58.305Z,61.47
2023-02-06T12:56:24.908Z,61.78
2023-02-06T12:57:31.566Z,60.89
2023-02-06T12:58:43.988Z,60.85
2023-02-06T13:00:19.095Z,61.78
2023-02-06T13:01:43.732Z,61.90
2023-02-06T13:03:18.225Z,61.49
2023-02-06T13:04:30.542Z,61.30
2023-02-06T13:05:41.693Z,61.14
2023-02-06T13:07:07.358Z,61.65
2023-02-06T13:08:12.697Z,61.58
2023-02-06T13:09:31.335Z,60.80
2023-02-06T13:10:36.404Z,60.84
2023-02-06T13:11:40.990Z,60.91
2023-02-06T13:12:43.737Z,61.55
2023-02-06T13:13:49.604Z,61.03
2023-02-06T13:15:01.223Z,62.24
2023-02-06T13:16:05.952Z,62.68
2023-02-06T13:17:16.724Z,62.59
2023-02-06T13:18:41.344Z,62.88
2023-02-06T13:19:44.060Z,63.34
2023-02-06T13:21:22.098Z,62.73
2023-02-06T13:22:38.510Z,63.13
2023-02-06T13:24:03.102Z,63.69
2023-02-06T13:25:30.634Z,63.02
2023-02-06T13:26:46.471Z,63.08
2023-02-06T13:27:49.810Z,62.54
2023-02-06T13:28:59.987Z,63.19
2023-02-06T13:33:18.000Z,65.34
2023-02-06T13:34:21.017Z,64.55
2023-02-06T13:35:30.942Z,64.78
2023-02-06T13:36:50.345Z,64.53
2023-02-06T13:38:28.779Z,64.99
2023-02-06T13:39:33.406Z,64.26
2023-02-06T13:40:36.839Z,64.42
2023-02-06T13:41:42.320Z,64.08
2023-02-06T13:42:58.786Z,64.80
2023-02-06T13:44:15.097Z,64.92
2023-02-06T13:45:29.055Z,65.65
2023-02-06T13:46:40.434Z,65.80
2023-02-06T13:47:52.089Z,65.06
2023-02-06T13:49:25.126Z,64.53
2023-02-06T13:50:35.240Z,64.84
2023-02-06T13:51:46.756Z,64.69
2023-02-06T13:53:05.259Z,65.40
2023-02-06T13:54:56.667Z,65.57
2023-02-06T13:56:21.957Z,65.63
2023-02-06T13:57:52.433Z,66.35
2023-02-06T13:58:57.624Z,66.10
2023-02-06T14:00:10.788Z,67.03
2023-02-06T14:01:23.297Z,67.38
2023-02-06T14:02:37.526Z,68.78
2023-02-06T14:03:45.476Z,67.99
2023-02-06T14:04:49.264Z,67.71
2023-02-06T14:05:59.081Z,67.98
2023-02-06T14:07:22.035Z,67.45
2023-02-06T14:08:27.591Z,67.09
2023-02-06T14:09:43.969Z,66.98
2023-02-06T14:10:58.711Z,67.63
2023-02-06T14:12:28.340Z,68.15
2023-02-06T14:13:38.767Z,67.67
2023-02-06T14:14:57.868Z,67.15
2023-02-06T14:16:12.419Z,66.93
2023-02-06T14:17:45.207Z,66.64
2023-02-06T14:19:15.611Z,66.06
2023-02-06T14:20:41.476Z,67.11
2023-02-06T14:22:20.993Z,67.25
2023-02-06T14:23:35.703Z,67.22
2023-02-06T14:24:51.145Z,67.48
2023-02-06T14:26:16.239Z,67.38
2023-02-06T14:27:21.905Z,67.95
2023-02-06T14:29:02.857Z,68.65
2023-02-06T14:30:44.210Z,68.88
2023-02-06T14:32:08.678Z,69.03
2023-02-06T14:33:40.428Z,69.55
2023-02-06T14:34:45.977Z,70.79
2023-02-06T14:36:11.198Z,70.63
2023-02-06T14:37:43.562Z,69.82
2023-02-06T14:39:24.021Z,69.79
2023-02-06T14:40:31.311Z,70.67
2023-02-06T14:41:39.631Z,70.98
2023-02-06T14:42:45.350Z,70.91
2023-02-06T14:43:50.949Z,71.18
2023-02-06T14:45:07.962Z,71.29
2023-02-06T14:46:15.982Z,71.58
2023-02-06T14:47:23.791Z,73.03
2023-02-06T14:48:45.842Z,73.08
2023-02-06T14:49:50.864Z,74.06
2023-02-06T14:50:57.422Z,74.20
2023-02-06T14:52:01.870Z,75.04
2023-02-06T14:53:09.723Z,74.70
2023-02-06T14:54:32.584Z,74.39
2023-02-06T14:55:37.778Z,75.22
2023-02-06T14:56:40.849Z,75.21
2023-02-06T14:57:45.273Z,75.20